sensor_id;sensor_type;location;lat;lon;timestamp;P1;durP1;ratioP1;P2;durP2;ratioP2
75589;SDS011;64169;47.240;11.312;2023-11-18T00:01:58;29.13;;;6.82;;
75589;SDS011;64169;47.240;11.312;2023-11-18T00:04:24;13.73;;;5.20;;
75589;SDS011;64169;47.240;11.312;2023-11-18T00:06:50;20.45;;;4.60;;
75589;SDS011;64169;47.240;11.312;2023-11-18T00:09:16;26.70;;;6.68;;
75589;SDS011;64169;47.240;11.312;2023-11-18T00:11:42;21.38;;;4.65;;
75589;SDS011;64169;47.240;11.312;2023-11-18T00:14:09;8.52;;;3.42;;
75589;SDS011;64169;47.240;11.312;2023-11-18T00:16:36;10.15;;;4.63;;
75589;SDS011;64169;47.240;11.312;2023-11-18T00:19:04;10.50;;;3.95;;
75589;SDS011;64169;47.240;11.312;2023-11-18T00:21:30;11.02;;;4.25;;
75589;SDS011;64169;47.240;11.312;2023-11-18T00:23:56;11.63;;;4.70;;
75589;SDS011;64169;47.240;11.312;2023-11-18T00:26:21;11.10;;;5.05;;
75589;SDS011;64169;47.240;11.312;2023-11-18T00:28:47;12.15;;;4.25;;
75589;SDS011;64169;47.240;11.312;2023-11-18T00:31:13;11.43;;;4.93;;
75589;SDS011;64169;47.240;11.312;2023-11-18T00:33:39;10.55;;;5.20;;
75589;SDS011;64169;47.240;11.312;2023-11-18T00:36:05;9.00;;;3.75;;
75589;SDS011;64169;47.240;11.312;2023-11-18T00:38:31;10.75;;;3.67;;
75589;SDS011;64169;47.240;11.312;2023-11-18T00:40:57;10.13;;;4.10;;
75589;SDS011;64169;47.240;11.312;2023-11-18T00:43:22;9.27;;;3.85;;
75589;SDS011;64169;47.240;11.312;2023-11-18T00:45:48;8.30;;;3.72;;
75589;SDS011;64169;47.240;11.312;2023-11-18T00:48:13;8.85;;;4.13;;
75589;SDS011;64169;47.240;11.312;2023-11-18T00:50:39;10.40;;;4.28;;
75589;SDS011;64169;47.240;11.312;2023-11-18T00:53:05;9.63;;;3.85;;
75589;SDS011;64169;47.240;11.312;2023-11-18T00:55:31;8.93;;;4.18;;
75589;SDS011;64169;47.240;11.312;2023-11-18T00:57:57;9.23;;;4.20;;
75589;SDS011;64169;47.240;11.312;2023-11-18T01:00:23;8.50;;;3.60;;
75589;SDS011;64169;47.240;11.312;2023-11-18T01:02:51;8.20;;;3.60;;
75589;SDS011;64169;47.240;11.312;2023-11-18T01:05:18;9.00;;;4.45;;
75589;SDS011;64169;47.240;11.312;2023-11-18T01:07:44;8.68;;;3.33;;
75589;SDS011;64169;47.240;11.312;2023-11-18T01:10:09;7.60;;;3.10;;
75589;SDS011;64169;47.240;11.312;2023-11-18T01:12:35;7.85;;;3.17;;
75589;SDS011;64169;47.240;11.312;2023-11-18T01:15:01;8.13;;;3.50;;
75589;SDS011;64169;47.240;11.312;2023-11-18T01:17:28;12.02;;;3.38;;
75589;SDS011;64169;47.240;11.312;2023-11-18T01:19:54;6.07;;;2.85;;
75589;SDS011;64169;47.240;11.312;2023-11-18T01:22:20;6.72;;;3.03;;
75589;SDS011;64169;47.240;11.312;2023-11-18T01:24:46;6.80;;;3.05;;
75589;SDS011;64169;47.240;11.312;2023-11-18T01:27:11;7.07;;;2.72;;
75589;SDS011;64169;47.240;11.312;2023-11-18T01:29:37;7.45;;;3.38;;
75589;SDS011;64169;47.240;11.312;2023-11-18T01:32:04;8.50;;;3.80;;
75589;SDS011;64169;47.240;11.312;2023-11-18T01:34:34;6.90;;;2.88;;
75589;SDS011;64169;47.240;11.312;2023-11-18T01:37:08;9.25;;;3.92;;
75589;SDS011;64169;47.240;11.312;2023-11-18T01:39:34;7.43;;;2.80;;
75589;SDS011;64169;47.240;11.312;2023-11-18T01:42:00;7.43;;;3.25;;
75589;SDS011;64169;47.240;11.312;2023-11-18T01:44:28;7.78;;;2.88;;
75589;SDS011;64169;47.240;11.312;2023-11-18T01:47:03;6.65;;;2.92;;
75589;SDS011;64169;47.240;11.312;2023-11-18T01:49:31;9.38;;;4.25;;
75589;SDS011;64169;47.240;11.312;2023-11-18T01:51:57;6.32;;;3.42;;
75589;SDS011;64169;47.240;11.312;2023-11-18T01:54:26;7.75;;;3.30;;
75589;SDS011;64169;47.240;11.312;2023-11-18T01:56:52;5.95;;;2.80;;
75589;SDS011;64169;47.240;11.312;2023-11-18T01:59:18;8.98;;;4.13;;
75589;SDS011;64169;47.240;11.312;2023-11-18T02:01:46;8.13;;;3.83;;
75589;SDS011;64169;47.240;11.312;2023-11-18T02:04:16;7.78;;;2.90;;
75589;SDS011;64169;47.240;11.312;2023-11-18T02:06:44;7.80;;;3.25;;
75589;SDS011;64169;47.240;11.312;2023-11-18T02:09:10;8.25;;;2.97;;
75589;SDS011;64169;47.240;11.312;2023-11-18T02:11:42;14.43;;;4.32;;
75589;SDS011;64169;47.240;11.312;2023-11-18T02:14:29;7.13;;;2.78;;
75589;SDS011;64169;47.240;11.312;2023-11-18T02:16:58;8.93;;;3.38;;
75589;SDS011;64169;47.240;11.312;2023-11-18T02:19:25;9.27;;;3.42;;
75589;SDS011;64169;47.240;11.312;2023-11-18T02:21:52;9.20;;;3.47;;
75589;SDS011;64169;47.240;11.312;2023-11-18T02:26:50;28.30;;;6.53;;
75589;SDS011;64169;47.240;11.312;2023-11-18T02:29:16;14.45;;;5.47;;
75589;SDS011;64169;47.240;11.312;2023-11-18T02:31:41;12.55;;;5.00;;
75589;SDS011;64169;47.240;11.312;2023-11-18T02:34:12;30.70;;;6.88;;
75589;SDS011;64169;47.240;11.312;2023-11-18T02:36:44;10.10;;;4.88;;
75589;SDS011;64169;47.240;11.312;2023-11-18T02:39:20;15.63;;;5.32;;
75589;SDS011;64169;47.240;11.312;2023-11-18T02:41:47;8.80;;;3.97;;
75589;SDS011;64169;47.240;11.312;2023-11-18T02:44:14;9.43;;;3.72;;
75589;SDS011;64169;47.240;11.312;2023-11-18T02:46:43;8.10;;;3.38;;
75589;SDS011;64169;47.240;11.312;2023-11-18T02:49:09;6.50;;;2.88;;
75589;SDS011;64169;47.240;11.312;2023-11-18T02:51:35;6.35;;;2.63;;
75589;SDS011;64169;47.240;11.312;2023-11-18T02:54:05;8.32;;;2.58;;
75589;SDS011;64169;47.240;11.312;2023-11-18T02:56:31;6.78;;;2.75;;
75589;SDS011;64169;47.240;11.312;2023-11-18T02:58:57;9.98;;;3.45;;
75589;SDS011;64169;47.240;11.312;2023-11-18T03:01:23;10.93;;;4.88;;
75589;SDS011;64169;47.240;11.312;2023-11-18T03:03:50;16.30;;;4.95;;
75589;SDS011;64169;47.240;11.312;2023-11-18T03:06:16;23.58;;;5.05;;
75589;SDS011;64169;47.240;11.312;2023-11-18T03:08:41;11.38;;;4.45;;
75589;SDS011;64169;47.240;11.312;2023-11-18T03:11:07;11.13;;;3.67;;
75589;SDS011;64169;47.240;11.312;2023-11-18T03:13:34;11.13;;;4.68;;
75589;SDS011;64169;47.240;11.312;2023-11-18T03:16:00;16.50;;;4.80;;
75589;SDS011;64169;47.240;11.312;2023-11-18T03:18:25;15.98;;;5.70;;
75589;SDS011;64169;47.240;11.312;2023-11-18T03:20:51;11.32;;;4.68;;
75589;SDS011;64169;47.240;11.312;2023-11-18T03:23:17;9.43;;;4.07;;
75589;SDS011;64169;47.240;11.312;2023-11-18T03:25:42;9.25;;;4.20;;
75589;SDS011;64169;47.240;11.312;2023-11-18T03:28:08;9.68;;;4.68;;
75589;SDS011;64169;47.240;11.312;2023-11-18T03:30:34;11.90;;;4.13;;
75589;SDS011;64169;47.240;11.312;2023-11-18T03:33:02;6.88;;;3.53;;
75589;SDS011;64169;47.240;11.312;2023-11-18T03:35:28;7.50;;;3.17;;
75589;SDS011;64169;47.240;11.312;2023-11-18T03:37:54;7.13;;;3.22;;
75589;SDS011;64169;47.240;11.312;2023-11-18T03:40:20;10.07;;;3.35;;
75589;SDS011;64169;47.240;11.312;2023-11-18T03:42:45;8.07;;;3.83;;
75589;SDS011;64169;47.240;11.312;2023-11-18T03:45:11;7.68;;;3.17;;
75589;SDS011;64169;47.240;11.312;2023-11-18T03:47:37;6.70;;;2.78;;
75589;SDS011;64169;47.240;11.312;2023-11-18T03:50:02;6.95;;;2.83;;
75589;SDS011;64169;47.240;11.312;2023-11-18T03:52:28;6.47;;;2.53;;
75589;SDS011;64169;47.240;11.312;2023-11-18T03:54:54;6.22;;;2.08;;
75589;SDS011;64169;47.240;11.312;2023-11-18T03:57:22;6.78;;;2.55;;
75589;SDS011;64169;47.240;11.312;2023-11-18T03:59:48;8.45;;;3.15;;
75589;SDS011;64169;47.240;11.312;2023-11-18T04:02:13;7.40;;;3.25;;
75589;SDS011;64169;47.240;11.312;2023-11-18T04:04:39;7.72;;;2.50;;
75589;SDS011;64169;47.240;11.312;2023-11-18T04:07:04;6.28;;;2.50;;
75589;SDS011;64169;47.240;11.312;2023-11-18T04:09:31;6.60;;;2.78;;
75589;SDS011;64169;47.240;11.312;2023-11-18T04:11:57;8.00;;;3.40;;
75589;SDS011;64169;47.240;11.312;2023-11-18T04:14:23;6.05;;;2.47;;
75589;SDS011;64169;47.240;11.312;2023-11-18T04:16:50;7.50;;;3.38;;
75589;SDS011;64169;47.240;11.312;2023-11-18T04:19:16;7.72;;;2.80;;
75589;SDS011;64169;47.240;11.312;2023-11-18T04:21:42;7.05;;;3.17;;
75589;SDS011;64169;47.240;11.312;2023-11-18T04:24:10;8.15;;;3.33;;
75589;SDS011;64169;47.240;11.312;2023-11-18T04:26:35;7.40;;;2.67;;
75589;SDS011;64169;47.240;11.312;2023-11-18T04:29:01;6.57;;;2.60;;
75589;SDS011;64169;47.240;11.312;2023-11-18T04:31:26;9.50;;;3.25;;
75589;SDS011;64169;47.240;11.312;2023-11-18T04:33:51;8.10;;;3.10;;
75589;SDS011;64169;47.240;11.312;2023-11-18T04:36:17;11.23;;;3.50;;
75589;SDS011;64169;47.240;11.312;2023-11-18T04:38:44;12.73;;;4.18;;
75589;SDS011;64169;47.240;11.312;2023-11-18T04:41:09;14.02;;;5.13;;
75589;SDS011;64169;47.240;11.312;2023-11-18T04:43:35;12.43;;;5.07;;
75589;SDS011;64169;47.240;11.312;2023-11-18T04:46:00;12.38;;;5.15;;
75589;SDS011;64169;47.240;11.312;2023-11-18T04:48:26;11.15;;;4.40;;
75589;SDS011;64169;47.240;11.312;2023-11-18T04:50:51;10.38;;;4.55;;
75589;SDS011;64169;47.240;11.312;2023-11-18T04:53:17;10.38;;;3.72;;
75589;SDS011;64169;47.240;11.312;2023-11-18T04:55:42;11.40;;;5.45;;
75589;SDS011;64169;47.240;11.312;2023-11-18T04:58:08;16.80;;;5.90;;
75589;SDS011;64169;47.240;11.312;2023-11-18T05:00:37;10.85;;;4.53;;
75589;SDS011;64169;47.240;11.312;2023-11-18T05:03:06;18.60;;;4.63;;
75589;SDS011;64169;47.240;11.312;2023-11-18T05:05:36;26.83;;;6.05;;
75589;SDS011;64169;47.240;11.312;2023-11-18T05:08:05;17.38;;;6.38;;
75589;SDS011;64169;47.240;11.312;2023-11-18T05:10:33;35.95;;;7.30;;
75589;SDS011;64169;47.240;11.312;2023-11-18T05:13:00;15.50;;;4.75;;
75589;SDS011;64169;47.240;11.312;2023-11-18T05:15:26;13.68;;;5.60;;
75589;SDS011;64169;47.240;11.312;2023-11-18T05:17:52;16.00;;;5.60;;
75589;SDS011;64169;47.240;11.312;2023-11-18T05:20:18;14.68;;;5.38;;
75589;SDS011;64169;47.240;11.312;2023-11-18T05:22:44;11.43;;;4.68;;
75589;SDS011;64169;47.240;11.312;2023-11-18T05:25:09;10.52;;;4.32;;
75589;SDS011;64169;47.240;11.312;2023-11-18T05:27:35;10.63;;;4.53;;
75589;SDS011;64169;47.240;11.312;2023-11-18T05:30:00;8.10;;;3.22;;
75589;SDS011;64169;47.240;11.312;2023-11-18T05:32:29;9.00;;;2.70;;
75589;SDS011;64169;47.240;11.312;2023-11-18T05:34:58;8.27;;;3.72;;
75589;SDS011;64169;47.240;11.312;2023-11-18T05:37:24;9.75;;;3.70;;
75589;SDS011;64169;47.240;11.312;2023-11-18T05:39:50;11.63;;;4.18;;
75589;SDS011;64169;47.240;11.312;2023-11-18T05:42:24;8.80;;;3.67;;
75589;SDS011;64169;47.240;11.312;2023-11-18T05:44:52;9.23;;;3.78;;
75589;SDS011;64169;47.240;11.312;2023-11-18T05:47:24;10.43;;;3.67;;
75589;SDS011;64169;47.240;11.312;2023-11-18T05:49:51;11.68;;;4.57;;
75589;SDS011;64169;47.240;11.312;2023-11-18T05:52:17;13.50;;;4.25;;
75589;SDS011;64169;47.240;11.312;2023-11-18T05:54:42;9.95;;;3.95;;
75589;SDS011;64169;47.240;11.312;2023-11-18T05:57:07;8.65;;;3.70;;
75589;SDS011;64169;47.240;11.312;2023-11-18T05:59:33;7.38;;;2.95;;
75589;SDS011;64169;47.240;11.312;2023-11-18T06:01:58;9.05;;;3.63;;
75589;SDS011;64169;47.240;11.312;2023-11-18T06:04:24;9.20;;;3.25;;
75589;SDS011;64169;47.240;11.312;2023-11-18T06:06:50;10.57;;;3.00;;
75589;SDS011;64169;47.240;11.312;2023-11-18T06:09:16;11.60;;;4.07;;
75589;SDS011;64169;47.240;11.312;2023-11-18T06:11:46;7.22;;;2.88;;
75589;SDS011;64169;47.240;11.312;2023-11-18T06:14:12;8.25;;;3.20;;
75589;SDS011;64169;47.240;11.312;2023-11-18T06:16:38;8.35;;;3.50;;
75589;SDS011;64169;47.240;11.312;2023-11-18T06:19:04;7.38;;;2.53;;
75589;SDS011;64169;47.240;11.312;2023-11-18T06:21:31;6.72;;;2.30;;
75589;SDS011;64169;47.240;11.312;2023-11-18T06:24:00;8.43;;;3.15;;
75589;SDS011;64169;47.240;11.312;2023-11-18T06:26:26;6.55;;;2.45;;
75589;SDS011;64169;47.240;11.312;2023-11-18T06:28:52;6.95;;;2.63;;
75589;SDS011;64169;47.240;11.312;2023-11-18T06:31:22;7.03;;;2.33;;
75589;SDS011;64169;47.240;11.312;2023-11-18T06:33:49;7.05;;;2.53;;
75589;SDS011;64169;47.240;11.312;2023-11-18T06:38:42;7.25;;;2.25;;
75589;SDS011;64169;47.240;11.312;2023-11-18T06:41:09;6.32;;;2.47;;
75589;SDS011;64169;47.240;11.312;2023-11-18T06:43:37;6.60;;;2.65;;
75589;SDS011;64169;47.240;11.312;2023-11-18T06:48:50;8.38;;;2.70;;
75589;SDS011;64169;47.240;11.312;2023-11-18T06:51:28;5.85;;;2.53;;
75589;SDS011;64169;47.240;11.312;2023-11-18T06:53:54;8.98;;;3.63;;
75589;SDS011;64169;47.240;11.312;2023-11-18T06:56:20;8.75;;;3.53;;
75589;SDS011;64169;47.240;11.312;2023-11-18T06:58:46;7.13;;;2.85;;
75589;SDS011;64169;47.240;11.312;2023-11-18T07:01:12;8.88;;;4.05;;
75589;SDS011;64169;47.240;11.312;2023-11-18T07:03:40;8.18;;;3.03;;
75589;SDS011;64169;47.240;11.312;2023-11-18T07:06:06;6.32;;;2.78;;
75589;SDS011;64169;47.240;11.312;2023-11-18T07:08:32;8.57;;;3.42;;
75589;SDS011;64169;47.240;11.312;2023-11-18T07:11:00;8.20;;;3.35;;
75589;SDS011;64169;47.240;11.312;2023-11-18T07:13:26;7.70;;;3.10;;
75589;SDS011;64169;47.240;11.312;2023-11-18T07:15:52;7.43;;;2.65;;
75589;SDS011;64169;47.240;11.312;2023-11-18T07:18:19;8.05;;;3.03;;
75589;SDS011;64169;47.240;11.312;2023-11-18T07:20:47;7.38;;;3.17;;
75589;SDS011;64169;47.240;11.312;2023-11-18T07:23:17;6.30;;;2.30;;
75589;SDS011;64169;47.240;11.312;2023-11-18T07:25:44;8.25;;;2.78;;
75589;SDS011;64169;47.240;11.312;2023-11-18T07:28:10;8.93;;;3.55;;
75589;SDS011;64169;47.240;11.312;2023-11-18T07:30:36;7.40;;;3.10;;
75589;SDS011;64169;47.240;11.312;2023-11-18T07:33:02;6.50;;;2.38;;
75589;SDS011;64169;47.240;11.312;2023-11-18T07:35:28;5.78;;;2.88;;
75589;SDS011;64169;47.240;11.312;2023-11-18T07:37:54;7.00;;;3.25;;
75589;SDS011;64169;47.240;11.312;2023-11-18T07:40:21;6.70;;;2.83;;
75589;SDS011;64169;47.240;11.312;2023-11-18T07:42:53;6.25;;;2.95;;
75589;SDS011;64169;47.240;11.312;2023-11-18T07:45:21;6.63;;;3.22;;
75589;SDS011;64169;47.240;11.312;2023-11-18T07:47:48;6.57;;;3.08;;
75589;SDS011;64169;47.240;11.312;2023-11-18T07:50:16;8.88;;;3.42;;
75589;SDS011;64169;47.240;11.312;2023-11-18T07:52:45;9.75;;;4.10;;
75589;SDS011;64169;47.240;11.312;2023-11-18T07:55:16;13.38;;;5.35;;
75589;SDS011;64169;47.240;11.312;2023-11-18T07:57:43;13.93;;;5.72;;
75589;SDS011;64169;47.240;11.312;2023-11-18T08:00:09;10.98;;;4.32;;
75589;SDS011;64169;47.240;11.312;2023-11-18T08:02:35;10.25;;;3.95;;
75589;SDS011;64169;47.240;11.312;2023-11-18T08:05:01;9.15;;;3.58;;
75589;SDS011;64169;47.240;11.312;2023-11-18T08:07:54;11.65;;;4.55;;
75589;SDS011;64169;47.240;11.312;2023-11-18T08:10:19;8.98;;;4.28;;
75589;SDS011;64169;47.240;11.312;2023-11-18T08:12:47;10.23;;;3.78;;
75589;SDS011;64169;47.240;11.312;2023-11-18T08:15:12;7.30;;;3.25;;
75589;SDS011;64169;47.240;11.312;2023-11-18T08:17:38;7.03;;;3.10;;
75589;SDS011;64169;47.240;11.312;2023-11-18T08:20:04;7.55;;;3.50;;
75589;SDS011;64169;47.240;11.312;2023-11-18T08:22:41;7.60;;;3.33;;
75589;SDS011;64169;47.240;11.312;2023-11-18T08:25:10;6.50;;;3.08;;
75589;SDS011;64169;47.240;11.312;2023-11-18T08:27:38;6.10;;;2.28;;
75589;SDS011;64169;47.240;11.312;2023-11-18T08:30:05;7.85;;;3.20;;
75589;SDS011;64169;47.240;11.312;2023-11-18T08:32:36;6.68;;;2.15;;
75589;SDS011;64169;47.240;11.312;2023-11-18T08:35:05;8.45;;;2.67;;
75589;SDS011;64169;47.240;11.312;2023-11-18T08:37:36;15.55;;;3.47;;
75589;SDS011;64169;47.240;11.312;2023-11-18T08:40:05;7.22;;;2.33;;
75589;SDS011;64169;47.240;11.312;2023-11-18T08:42:32;7.50;;;2.78;;
75589;SDS011;64169;47.240;11.312;2023-11-18T08:44:59;15.38;;;3.55;;
75589;SDS011;64169;47.240;11.312;2023-11-18T08:47:25;7.53;;;2.35;;
75589;SDS011;64169;47.240;11.312;2023-11-18T08:49:51;8.85;;;3.55;;
75589;SDS011;64169;47.240;11.312;2023-11-18T08:52:17;8.15;;;2.72;;
75589;SDS011;64169;47.240;11.312;2023-11-18T08:54:43;10.27;;;3.05;;
75589;SDS011;64169;47.240;11.312;2023-11-18T08:57:29;5.53;;;2.40;;
75589;SDS011;64169;47.240;11.312;2023-11-18T09:00:14;7.20;;;2.58;;
75589;SDS011;64169;47.240;11.312;2023-11-18T09:03:00;6.13;;;2.42;;
75589;SDS011;64169;47.240;11.312;2023-11-18T09:05:26;5.93;;;2.67;;
75589;SDS011;64169;47.240;11.312;2023-11-18T09:07:57;6.32;;;2.63;;
75589;SDS011;64169;47.240;11.312;2023-11-18T09:10:23;6.57;;;2.53;;
75589;SDS011;64169;47.240;11.312;2023-11-18T09:12:49;5.95;;;1.92;;
75589;SDS011;64169;47.240;11.312;2023-11-18T09:15:14;5.45;;;2.05;;
75589;SDS011;64169;47.240;11.312;2023-11-18T09:17:47;6.22;;;2.20;;
75589;SDS011;64169;47.240;11.312;2023-11-18T09:20:13;5.40;;;2.35;;
75589;SDS011;64169;47.240;11.312;2023-11-18T09:22:43;5.72;;;1.88;;
75589;SDS011;64169;47.240;11.312;2023-11-18T09:25:09;6.57;;;2.47;;
75589;SDS011;64169;47.240;11.312;2023-11-18T09:27:35;5.30;;;2.22;;
75589;SDS011;64169;47.240;11.312;2023-11-18T09:30:01;5.85;;;2.00;;
75589;SDS011;64169;47.240;11.312;2023-11-18T09:32:30;3.97;;;1.70;;
75589;SDS011;64169;47.240;11.312;2023-11-18T09:34:59;6.32;;;2.30;;
75589;SDS011;64169;47.240;11.312;2023-11-18T09:37:33;4.22;;;1.30;;
75589;SDS011;64169;47.240;11.312;2023-11-18T09:39:59;4.97;;;2.08;;
75589;SDS011;64169;47.240;11.312;2023-11-18T09:42:36;4.60;;;1.70;;
75589;SDS011;64169;47.240;11.312;2023-11-18T09:45:04;4.60;;;1.70;;
75589;SDS011;64169;47.240;11.312;2023-11-18T09:47:32;4.10;;;1.73;;
75589;SDS011;64169;47.240;11.312;2023-11-18T09:50:05;4.13;;;1.30;;
75589;SDS011;64169;47.240;11.312;2023-11-18T09:52:35;4.88;;;1.40;;
75589;SDS011;64169;47.240;11.312;2023-11-18T09:57:40;4.32;;;1.77;;
75589;SDS011;64169;47.240;11.312;2023-11-18T10:00:11;3.75;;;1.40;;
75589;SDS011;64169;47.240;11.312;2023-11-18T10:02:49;5.43;;;1.60;;
75589;SDS011;64169;47.240;11.312;2023-11-18T10:05:15;2.88;;;1.10;;
75589;SDS011;64169;47.240;11.312;2023-11-18T10:07:46;5.03;;;1.70;;
75589;SDS011;64169;47.240;11.312;2023-11-18T10:10:12;4.20;;;1.30;;
75589;SDS011;64169;47.240;11.312;2023-11-18T10:12:44;4.57;;;1.40;;
75589;SDS011;64169;47.240;11.312;2023-11-18T10:15:13;3.67;;;1.52;;
75589;SDS011;64169;47.240;11.312;2023-11-18T10:17:43;5.28;;;1.80;;
75589;SDS011;64169;47.240;11.312;2023-11-18T10:20:20;4.97;;;1.65;;
75589;SDS011;64169;47.240;11.312;2023-11-18T10:22:53;4.07;;;1.35;;
75589;SDS011;64169;47.240;11.312;2023-11-18T10:25:30;4.65;;;1.60;;
75589;SDS011;64169;47.240;11.312;2023-11-18T10:28:00;6.32;;;1.77;;
75589;SDS011;64169;47.240;11.312;2023-11-18T10:30:27;4.57;;;1.40;;
75589;SDS011;64169;47.240;11.312;2023-11-18T10:32:59;4.55;;;1.63;;
75589;SDS011;64169;47.240;11.312;2023-11-18T10:35:34;4.43;;;2.08;;
75589;SDS011;64169;47.240;11.312;2023-11-18T10:38:02;5.40;;;1.83;;
75589;SDS011;64169;47.240;11.312;2023-11-18T10:40:34;4.03;;;1.40;;
75589;SDS011;64169;47.240;11.312;2023-11-18T10:43:05;5.28;;;1.80;;
75589;SDS011;64169;47.240;11.312;2023-11-18T10:45:35;4.68;;;1.58;;
75589;SDS011;64169;47.240;11.312;2023-11-18T10:48:06;5.95;;;2.10;;
75589;SDS011;64169;47.240;11.312;2023-11-18T10:50:32;4.28;;;1.50;;
75589;SDS011;64169;47.240;11.312;2023-11-18T10:53:00;4.10;;;1.33;;
75589;SDS011;64169;47.240;11.312;2023-11-18T10:55:39;3.83;;;1.40;;
75589;SDS011;64169;47.240;11.312;2023-11-18T10:58:05;3.97;;;1.50;;
75589;SDS011;64169;47.240;11.312;2023-11-18T11:00:51;2.42;;;1.00;;
75589;SDS011;64169;47.240;11.312;2023-11-18T11:03:25;3.63;;;1.33;;
75589;SDS011;64169;47.240;11.312;2023-11-18T11:05:51;2.85;;;0.80;;
75589;SDS011;64169;47.240;11.312;2023-11-18T11:08:19;3.40;;;1.35;;
75589;SDS011;64169;47.240;11.312;2023-11-18T11:10:45;2.60;;;1.00;;
75589;SDS011;64169;47.240;11.312;2023-11-18T11:13:13;2.88;;;1.00;;
75589;SDS011;64169;47.240;11.312;2023-11-18T11:15:43;3.25;;;1.30;;
75589;SDS011;64169;47.240;11.312;2023-11-18T11:18:11;3.47;;;1.20;;
75589;SDS011;64169;47.240;11.312;2023-11-18T11:23:32;3.30;;;1.02;;
75589;SDS011;64169;47.240;11.312;2023-11-18T11:28:48;3.42;;;1.20;;
75589;SDS011;64169;47.240;11.312;2023-11-18T11:31:54;3.10;;;1.13;;
75589;SDS011;64169;47.240;11.312;2023-11-18T11:34:19;3.65;;;1.20;;
75589;SDS011;64169;47.240;11.312;2023-11-18T11:36:49;3.78;;;1.30;;
75589;SDS011;64169;47.240;11.312;2023-11-18T11:39:16;3.35;;;1.10;;
75589;SDS011;64169;47.240;11.312;2023-11-18T11:41:51;2.88;;;0.93;;
75589;SDS011;64169;47.240;11.312;2023-11-18T11:44:19;2.85;;;1.20;;
75589;SDS011;64169;47.240;11.312;2023-11-18T11:46:48;3.10;;;1.10;;
75589;SDS011;64169;47.240;11.312;2023-11-18T11:49:21;3.05;;;1.02;;
75589;SDS011;64169;47.240;11.312;2023-11-18T11:51:55;2.75;;;1.00;;
75589;SDS011;64169;47.240;11.312;2023-11-18T11:54:29;2.38;;;0.82;;
75589;SDS011;64169;47.240;11.312;2023-11-18T11:57:01;2.65;;;0.80;;
75589;SDS011;64169;47.240;11.312;2023-11-18T12:02:17;2.03;;;0.70;;
75589;SDS011;64169;47.240;11.312;2023-11-18T12:04:49;2.83;;;0.85;;
75589;SDS011;64169;47.240;11.312;2023-11-18T12:07:17;2.20;;;0.63;;
75589;SDS011;64169;47.240;11.312;2023-11-18T12:09:46;2.90;;;0.85;;
75589;SDS011;64169;47.240;11.312;2023-11-18T12:12:18;1.88;;;0.80;;
75589;SDS011;64169;47.240;11.312;2023-11-18T12:14:49;2.53;;;1.00;;
75589;SDS011;64169;47.240;11.312;2023-11-18T12:20:40;3.33;;;1.00;;
75589;SDS011;64169;47.240;11.312;2023-11-18T12:23:12;2.70;;;0.98;;
75589;SDS011;64169;47.240;11.312;2023-11-18T12:25:43;5.95;;;1.13;;
75589;SDS011;64169;47.240;11.312;2023-11-18T12:28:11;3.00;;;0.90;;
75589;SDS011;64169;47.240;11.312;2023-11-18T12:30:40;2.63;;;1.00;;
75589;SDS011;64169;47.240;11.312;2023-11-18T12:33:16;2.83;;;1.10;;
75589;SDS011;64169;47.240;11.312;2023-11-18T12:41:10;3.30;;;0.80;;
75589;SDS011;64169;47.240;11.312;2023-11-18T12:47:00;2.72;;;0.95;;
75589;SDS011;64169;47.240;11.312;2023-11-18T12:49:43;2.72;;;0.85;;
75589;SDS011;64169;47.240;11.312;2023-11-18T12:52:12;3.35;;;0.80;;
75589;SDS011;64169;47.240;11.312;2023-11-18T12:54:40;2.17;;;0.73;;
75589;SDS011;64169;47.240;11.312;2023-11-18T12:57:09;2.63;;;0.90;;
75589;SDS011;64169;47.240;11.312;2023-11-18T12:59:40;2.50;;;0.80;;
75589;SDS011;64169;47.240;11.312;2023-11-18T13:02:09;2.85;;;0.90;;
75589;SDS011;64169;47.240;11.312;2023-11-18T13:04:44;2.17;;;0.80;;
75589;SDS011;64169;47.240;11.312;2023-11-18T13:07:13;2.15;;;0.80;;
75589;SDS011;64169;47.240;11.312;2023-11-18T13:09:39;2.53;;;0.73;;
75589;SDS011;64169;47.240;11.312;2023-11-18T13:12:06;1.90;;;0.70;;
75589;SDS011;64169;47.240;11.312;2023-11-18T13:14:34;1.45;;;0.50;;
75589;SDS011;64169;47.240;11.312;2023-11-18T13:17:01;1.60;;;0.70;;
75589;SDS011;64169;47.240;11.312;2023-11-18T13:19:30;2.05;;;0.80;;
75589;SDS011;64169;47.240;11.312;2023-11-18T13:21:57;2.00;;;0.80;;
75589;SDS011;64169;47.240;11.312;2023-11-18T13:24:24;1.88;;;0.80;;
75589;SDS011;64169;47.240;11.312;2023-11-18T13:26:52;2.17;;;0.75;;
75589;SDS011;64169;47.240;11.312;2023-11-18T13:29:19;4.20;;;1.00;;
75589;SDS011;64169;47.240;11.312;2023-11-18T13:31:46;2.80;;;0.80;;
75589;SDS011;64169;47.240;11.312;2023-11-18T13:34:13;3.97;;;0.93;;
75589;SDS011;64169;47.240;11.312;2023-11-18T13:36:39;4.03;;;1.20;;
75589;SDS011;64169;47.240;11.312;2023-11-18T13:39:05;2.38;;;0.88;;
75589;SDS011;64169;47.240;11.312;2023-11-18T13:41:32;3.22;;;1.10;;
75589;SDS011;64169;47.240;11.312;2023-11-18T13:43:57;2.38;;;0.80;;
75589;SDS011;64169;47.240;11.312;2023-11-18T13:46:23;3.17;;;0.90;;
75589;SDS011;64169;47.240;11.312;2023-11-18T13:48:49;2.88;;;0.90;;
75589;SDS011;64169;47.240;11.312;2023-11-18T13:51:15;3.25;;;1.05;;
75589;SDS011;64169;47.240;11.312;2023-11-18T13:53:42;2.72;;;1.08;;
75589;SDS011;64169;47.240;11.312;2023-11-18T13:56:09;2.75;;;1.10;;
75589;SDS011;64169;47.240;11.312;2023-11-18T13:58:35;1.65;;;0.65;;
75589;SDS011;64169;47.240;11.312;2023-11-18T14:01:07;2.90;;;1.00;;
75589;SDS011;64169;47.240;11.312;2023-11-18T14:03:34;3.65;;;1.20;;
75589;SDS011;64169;47.240;11.312;2023-11-18T14:06:01;3.28;;;1.15;;
75589;SDS011;64169;47.240;11.312;2023-11-18T14:08:28;2.55;;;1.00;;
75589;SDS011;64169;47.240;11.312;2023-11-18T14:10:54;3.10;;;1.10;;
75589;SDS011;64169;47.240;11.312;2023-11-18T14:13:20;2.65;;;0.98;;
75589;SDS011;64169;47.240;11.312;2023-11-18T14:15:47;2.00;;;0.85;;
75589;SDS011;64169;47.240;11.312;2023-11-18T14:18:13;2.67;;;1.20;;
75589;SDS011;64169;47.240;11.312;2023-11-18T14:20:39;2.40;;;0.90;;
75589;SDS011;64169;47.240;11.312;2023-11-18T14:23:04;3.63;;;1.08;;
75589;SDS011;64169;47.240;11.312;2023-11-18T14:25:30;3.60;;;1.08;;
75589;SDS011;64169;47.240;11.312;2023-11-18T14:27:57;4.00;;;1.45;;
75589;SDS011;64169;47.240;11.312;2023-11-18T14:30:23;3.78;;;1.35;;
75589;SDS011;64169;47.240;11.312;2023-11-18T14:32:50;3.03;;;1.10;;
75589;SDS011;64169;47.240;11.312;2023-11-18T14:35:15;2.97;;;1.00;;
75589;SDS011;64169;47.240;11.312;2023-11-18T14:37:45;2.38;;;0.90;;
75589;SDS011;64169;47.240;11.312;2023-11-18T14:40:11;3.30;;;0.90;;
75589;SDS011;64169;47.240;11.312;2023-11-18T14:42:39;3.13;;;1.00;;
75589;SDS011;64169;47.240;11.312;2023-11-18T14:45:12;2.45;;;0.88;;
75589;SDS011;64169;47.240;11.312;2023-11-18T14:47:39;3.50;;;1.27;;
75589;SDS011;64169;47.240;11.312;2023-11-18T14:50:05;4.50;;;1.30;;
75589;SDS011;64169;47.240;11.312;2023-11-18T14:52:40;3.00;;;1.00;;
75589;SDS011;64169;47.240;11.312;2023-11-18T14:55:11;3.65;;;1.20;;
75589;SDS011;64169;47.240;11.312;2023-11-18T14:57:40;4.75;;;1.60;;
75589;SDS011;64169;47.240;11.312;2023-11-18T15:00:06;7.82;;;2.92;;
75589;SDS011;64169;47.240;11.312;2023-11-18T15:02:33;8.25;;;3.17;;
75589;SDS011;64169;47.240;11.312;2023-11-18T15:04:59;7.28;;;2.60;;
75589;SDS011;64169;47.240;11.312;2023-11-18T15:07:25;6.10;;;2.00;;